createdAt,value
2023-01-05T00:02:46.626Z,97390.09
2023-01-05T00:07:48.275Z,97388.31
2023-01-05T00:13:08.458Z,97376.38
2023-01-05T00:18:32.297Z,97383.53
2023-01-05T00:23:33.905Z,97367.94
2023-01-05T00:28:35.636Z,97377.56
2023-01-05T00:33:37.266Z,97389.75
2023-01-05T00:38:41.695Z,97387.84
2023-01-05T00:43:43.279Z,97396.38
2023-01-05T00:48:44.945Z,97396.66
2023-01-05T00:53:48.257Z,97400.31
2023-01-05T00:58:54.283Z,97379.03
2023-01-05T01:03:56.558Z,97392.75
2023-01-05T01:08:59.195Z,97390.97
2023-01-05T01:14:00.834Z,97391.69
2023-01-05T01:19:05.271Z,97391.22
2023-01-05T01:24:07.805Z,97401.69
2023-01-05T01:29:09.754Z,97394.00
2023-01-05T01:34:11.516Z,97385.00
2023-01-05T01:39:14.509Z,97393.31
2023-01-05T01:44:49.704Z,97387.97
2023-01-05T01:49:55.442Z,97391.06
2023-01-05T01:54:57.749Z,97387.91
2023-01-05T02:00:02.620Z,97372.75
2023-01-05T02:05:08.742Z,97379.28
2023-01-05T02:10:10.977Z,97361.88
2023-01-05T02:15:22.395Z,97354.31
2023-01-05T02:20:44.432Z,97348.31
2023-01-05T02:26:01.181Z,97348.91
2023-01-05T02:31:07.267Z,97356.13
2023-01-05T02:36:26.510Z,97355.47
2023-01-05T02:41:45.315Z,97339.06
2023-01-05T02:47:30.543Z,97343.03
2023-01-05T02:52:49.185Z,97349.09
2023-01-05T02:57:58.835Z,97343.28
2023-01-05T03:03:09.802Z,97353.06
2023-01-05T03:08:25.061Z,97349.28
2023-01-05T03:13:42.944Z,97359.56
2023-01-05T03:19:11.452Z,97374.63
2023-01-05T03:24:31.690Z,97372.47
2023-01-05T03:29:52.005Z,97375.50
2023-01-05T03:35:28.908Z,97373.50
2023-01-05T03:40:33.668Z,97362.31
2023-01-05T03:45:43.381Z,97372.16
2023-01-05T03:50:50.741Z,97384.63
2023-01-05T03:55:54.271Z,97374.75
2023-01-05T04:00:57.909Z,97377.53
2023-01-05T04:06:00.853Z,97375.31
2023-01-05T04:11:13.031Z,97385.91
2023-01-05T04:16:15.016Z,97368.25
2023-01-05T04:21:17.783Z,97392.38
2023-01-05T04:26:20.100Z,97400.94
2023-01-05T04:31:24.563Z,97415.47
2023-01-05T04:36:28.779Z,97416.22
2023-01-05T04:41:32.563Z,97418.13
2023-01-05T04:46:34.489Z,97416.41
2023-01-05T04:51:37.486Z,97440.56
2023-01-05T04:56:40.841Z,97440.63
2023-01-05T05:01:43.656Z,97445.22
2023-01-05T05:06:47.813Z,97442.56
2023-01-05T05:11:50.378Z,97449.53
2023-01-05T05:16:56.263Z,97450.69
2023-01-05T05:21:57.984Z,97453.22
2023-01-05T05:27:01.367Z,97452.56
2023-01-05T05:32:04.053Z,97458.94
2023-01-05T05:37:05.811Z,97475.53
2023-01-05T05:42:07.396Z,97474.53
2023-01-05T05:47:09.040Z,97465.75
2023-01-05T05:52:10.667Z,97477.66
2023-01-05T05:57:12.361Z,97474.81
2023-01-05T06:02:14.123Z,97481.13
2023-01-05T06:07:15.859Z,97485.44
2023-01-05T06:12:17.451Z,97480.50
2023-01-05T06:17:19.137Z,97491.41
2023-01-05T06:22:20.815Z,97497.84
2023-01-05T06:27:22.433Z,97510.41
2023-01-05T06:32:24.111Z,97505.00
2023-01-05T06:37:25.704Z,97522.44
2023-01-05T06:42:27.402Z,97523.25
2023-01-05T06:47:28.957Z,97524.31
2023-01-05T06:52:30.646Z,97534.19
2023-01-05T06:57:32.234Z,97538.06
2023-01-05T07:02:33.852Z,97541.63
2023-01-05T07:07:36.060Z,97554.25
2023-01-05T07:12:37.804Z,97548.06
2023-01-05T07:17:39.410Z,97560.25
2023-01-05T07:22:41.013Z,97564.97
2023-01-05T07:27:42.587Z,97585.63
2023-01-05T07:32:44.208Z,97587.44
2023-01-05T07:37:45.799Z,97583.53
2023-01-05T07:42:52.094Z,97596.00
2023-01-05T07:47:53.684Z,97607.00
2023-01-05T07:52:55.266Z,97599.22
2023-01-05T07:57:56.803Z,97600.88
2023-01-05T08:02:58.383Z,97606.84
2023-01-05T08:07:59.936Z,97611.06
2023-01-05T08:13:25.227Z,97628.72
2023-01-05T08:18:27.496Z,97626.31
2023-01-05T08:23:29.090Z,97629.53
2023-01-05T08:28:35.236Z,97643.59
2023-01-05T08:33:37.646Z,97644.69
2023-01-05T08:38:43.312Z,97662.66
2023-01-05T08:43:49.798Z,97664.94
2023-01-05T08:48:55.264Z,97667.44
2023-01-05T08:53:57.396Z,97690.63
2023-01-05T08:59:01.579Z,97681.84
2023-01-05T09:04:03.200Z,97688.69
2023-01-05T09:09:05.145Z,97695.28
2023-01-05T09:14:06.838Z,97687.00
2023-01-05T09:19:10.045Z,97689.56
2023-01-05T09:24:12.992Z,97685.34
2023-01-05T09:29:14.714Z,97703.88
2023-01-05T09:34:19.002Z,97710.53
2023-01-05T09:39:20.643Z,97711.25
2023-01-05T09:44:40.405Z,97707.94
2023-01-05T09:49:42.217Z,97706.75
2023-01-05T09:54:43.851Z,97720.63
2023-01-05T09:59:50.522Z,97712.38
2023-01-05T10:04:54.309Z,97710.81
2023-01-05T10:10:00.459Z,97712.31
2023-01-05T10:15:11.339Z,97729.59
2023-01-05T10:20:42.916Z,97733.25
2023-01-05T10:25:57.009Z,97716.53
2023-01-05T10:31:01.553Z,97720.31
2023-01-05T10:36:12.991Z,97715.25
2023-01-05T10:41:37.127Z,97730.75
2023-01-05T10:46:48.703Z,97726.00
2023-01-05T10:51:57.396Z,97716.19
2023-01-05T10:57:35.364Z,97729.53
2023-01-05T11:02:50.245Z,97727.94
2023-01-05T11:07:55.744Z,97723.34
2023-01-05T11:13:18.349Z,97735.81
2023-01-05T11:18:29.407Z,97736.28
2023-01-05T11:23:55.336Z,97741.06
2023-01-05T11:29:05.233Z,97757.88
2023-01-05T11:34:15.394Z,97757.44
2023-01-05T11:39:25.908Z,97759.13
2023-01-05T11:44:27.923Z,97769.00
2023-01-05T11:49:29.590Z,97767.75
2023-01-05T11:54:36.715Z,97773.44
2023-01-05T11:59:38.317Z,97780.00
2023-01-05T12:04:48.881Z,97809.63
2023-01-05T12:10:08.902Z,97785.81
2023-01-05T12:15:34.873Z,97796.91
2023-01-05T12:21:02.835Z,97782.56
2023-01-05T12:26:19.049Z,97788.44
2023-01-05T12:37:10.818Z,97790.53
2023-01-05T12:42:23.451Z,97797.88
2023-01-05T12:48:06.085Z,97801.44
2023-01-05T12:53:17.622Z,97811.19
2023-01-05T12:58:49.141Z,97819.16
2023-01-05T13:04:12.349Z,97831.09
2023-01-05T13:09:20.330Z,97823.97
2023-01-05T13:14:27.397Z,97827.97
2023-01-05T13:19:28.928Z,97824.50
2023-01-05T13:24:35.971Z,97833.56
2023-01-05T13:29:42.171Z,97834.88
2023-01-05T13:34:43.689Z,97840.97
2023-01-05T13:40:03.783Z,97847.84
2023-01-05T13:45:14.484Z,97843.25
2023-01-05T13:50:23.435Z,97848.84
2023-01-05T13:55:26.840Z,97854.28
2023-01-05T14:00:37.741Z,97863.94
2023-01-05T14:05:50.478Z,97869.72
2023-01-05T14:11:09.126Z,97876.59
2023-01-05T14:16:43.763Z,97885.69
2023-01-05T14:21:53.766Z,97896.69
2023-01-05T14:27:02.295Z,97898.16
2023-01-05T14:32:07.711Z,97904.78
2023-01-05T14:37:40.097Z,97930.56
2023-01-05T14:42:47.760Z,97947.13
2023-01-05T14:47:53.042Z,97945.03
2023-01-05T14:53:02.530Z,97941.63
2023-01-05T14:58:25.677Z,97956.41
2023-01-05T15:03:30.616Z,97973.75
2023-01-05T15:08:55.431Z,97969.75
2023-01-05T15:14:25.374Z,97980.09
2023-01-05T15:19:36.042Z,97981.75
2023-01-05T15:25:07.687Z,97987.78
2023-01-05T15:30:32.565Z,97986.56
2023-01-05T15:35:43.578Z,97986.69
2023-01-05T15:40:45.354Z,97997.38
2023-01-05T15:45:53.353Z,97999.22
2023-01-05T15:50:58.343Z,98006.22
2023-01-05T15:56:00.917Z,98017.94
2023-01-05T16:01:10.817Z,98021.69
2023-01-05T16:06:24.249Z,98018.03
2023-01-05T16:11:36.666Z,98025.56
2023-01-05T16:16:53.933Z,98041.56
2023-01-05T16:22:09.141Z,98049.97
2023-01-05T16:27:13.159Z,98040.59
2023-01-05T16:32:34.531Z,98053.25
2023-01-05T16:37:36.154Z,98059.59
2023-01-05T16:42:46.818Z,98066.09
2023-01-05T16:47:48.999Z,98074.00
2023-01-05T16:53:06.480Z,98090.22
2023-01-05T16:58:38.235Z,98074.13
2023-01-05T17:03:40.570Z,98071.97
2023-01-05T17:08:42.213Z,98084.66
2023-01-05T17:13:45.691Z,98076.69
2023-01-05T17:18:48.008Z,98067.25
2023-01-05T17:23:52.390Z,98078.06
2023-01-05T17:28:57.423Z,98091.66
2023-01-05T17:33:59.092Z,98094.25
2023-01-05T17:39:00.812Z,98100.75
2023-01-05T17:44:02.640Z,98109.50
2023-01-05T17:49:04.338Z,98105.31
2023-01-05T17:54:06.008Z,98120.56
2023-01-05T17:59:07.661Z,98121.53
2023-01-05T18:04:09.248Z,98137.09
2023-01-05T18:09:10.810Z,98132.41
2023-01-05T18:14:12.387Z,98132.41
2023-01-05T18:24:21.747Z,98142.69
2023-01-05T18:29:23.402Z,98147.59
2023-01-05T18:34:25.009Z,98138.13
2023-01-05T18:39:26.648Z,98151.56
2023-01-05T18:44:28.352Z,98154.81
2023-01-05T18:49:29.969Z,98164.91
2023-01-05T18:54:31.806Z,98164.06
2023-01-05T18:59:33.383Z,98175.38
2023-01-05T19:04:34.990Z,98171.53
2023-01-05T19:09:36.750Z,98176.44
2023-01-05T19:14:38.408Z,98182.69
2023-01-05T19:19:41.041Z,98183.28
2023-01-05T19:24:42.617Z,98183.06
2023-01-05T19:29:44.845Z,98185.13
2023-01-05T19:34:46.475Z,98181.59
2023-01-05T19:39:48.072Z,98182.97
2023-01-05T19:44:50.381Z,98187.34
2023-01-05T19:49:53.205Z,98186.28
2023-01-05T19:54:55.104Z,98192.19
2023-01-05T19:59:56.775Z,98200.84
2023-01-05T20:04:58.360Z,98197.13
2023-01-05T20:09:59.968Z,98202.44
2023-01-05T20:15:01.580Z,98199.47
2023-01-05T20:20:03.199Z,98207.09
2023-01-05T20:25:06.008Z,98202.19
2023-01-05T20:30:08.101Z,98209.03
2023-01-05T20:35:11.738Z,98212.84
2023-01-05T20:40:13.408Z,98222.38
2023-01-05T20:45:16.081Z,98228.22
2023-01-05T20:50:17.916Z,98222.38
2023-01-05T20:55:19.550Z,98224.59
2023-01-05T21:00:21.232Z,98223.09
2023-01-05T21:05:22.840Z,98228.41
2023-01-05T21:10:24.415Z,98234.97
2023-01-05T21:15:27.556Z,98242.34
2023-01-05T21:20:29.183Z,98245.03
2023-01-05T21:25:30.811Z,98242.78
2023-01-05T21:30:52.419Z,98246.25
2023-01-05T21:35:55.517Z,98248.34
2023-01-05T21:41:05.454Z,98248.94
2023-01-05T21:46:09.478Z,98250.06
2023-01-05T21:51:29.770Z,98250.50
2023-01-05T21:56:38.399Z,98247.59
2023-01-05T22:01:40.089Z,98249.06
2023-01-05T22:06:41.696Z,98243.91
2023-01-05T22:11:43.435Z,98239.53
2023-01-05T22:16:45.036Z,98243.75
2023-01-05T22:21:46.669Z,98245.53
2023-01-05T22:26:48.262Z,98244.44
2023-01-05T22:31:50.735Z,98239.00
2023-01-05T22:36:53.382Z,98241.34
2023-01-05T22:41:55.004Z,98249.53
2023-01-05T22:46:57.149Z,98247.78
2023-01-05T22:51:58.740Z,98252.41
2023-01-05T22:57:00.416Z,98251.78
2023-01-05T23:02:02.055Z,98255.00
2023-01-05T23:07:03.712Z,98253.66
2023-01-05T23:12:05.371Z,98258.13
2023-01-05T23:17:07.720Z,98254.47
2023-01-05T23:22:11.487Z,98249.06
2023-01-05T23:27:13.322Z,98252.34
2023-01-05T23:32:14.930Z,98247.22
2023-01-05T23:37:16.513Z,98243.25
2023-01-05T23:42:36.706Z,98251.22
2023-01-05T23:47:38.269Z,98247.19
2023-01-05T23:52:39.876Z,98240.16
2023-01-05T23:57:41.473Z,98235.84
